createdAt,value
2022-12-16T00:01:19.144Z,-7.31
2022-12-16T00:03:48.915Z,-7.27
2022-12-16T00:06:17.219Z,-7.23
2022-12-16T00:08:44.966Z,-7.15
2022-12-16T00:11:13.399Z,-7.10
2022-12-16T00:13:41.708Z,-7.04
2022-12-16T00:16:12.915Z,-7.11
2022-12-16T00:18:41.577Z,-7.24
2022-12-16T00:21:10.469Z,-7.28
2022-12-16T00:23:39.517Z,-7.28
2022-12-16T00:26:08.343Z,-7.20
2022-12-16T00:28:36.467Z,-7.14
2022-12-16T00:31:04.516Z,-7.11
2022-12-16T00:33:33.610Z,-7.06
2022-12-16T00:36:01.733Z,-6.98
2022-12-16T00:38:29.549Z,-6.92
2022-12-16T00:40:57.318Z,-6.84
2022-12-16T00:43:25.093Z,-6.86
2022-12-16T00:45:53.237Z,-6.85
2022-12-16T00:48:24.090Z,-6.81
2022-12-16T00:50:55.727Z,-6.82
2022-12-16T00:53:24.835Z,-6.88
2022-12-16T00:56:01.982Z,-6.97
2022-12-16T00:58:29.837Z,-7.01
2022-12-16T01:00:57.767Z,-6.96
2022-12-16T01:03:26.010Z,-6.87
2022-12-16T01:05:54.438Z,-6.78
2022-12-16T01:08:23.838Z,-6.70
2022-12-16T01:10:56.564Z,-6.57
2022-12-16T01:13:26.038Z,-6.48
2022-12-16T01:15:54.140Z,-6.43
2022-12-16T01:18:21.939Z,-6.41
2022-12-16T01:20:49.917Z,-6.44
2022-12-16T01:23:18.569Z,-6.43
2022-12-16T01:25:58.688Z,-6.35
2022-12-16T01:28:27.763Z,-6.34
2022-12-16T01:31:01.724Z,-6.25
2022-12-16T01:33:32.187Z,-6.24
2022-12-16T01:36:02.415Z,-6.26
2022-12-16T01:38:30.881Z,-6.27
2022-12-16T01:40:59.064Z,-6.28
2022-12-16T01:43:36.160Z,-6.27
2022-12-16T01:46:13.648Z,-6.27
2022-12-16T01:48:48.720Z,-6.21
2022-12-16T01:51:36.653Z,-6.15
2022-12-16T01:54:39.139Z,-6.12
2022-12-16T01:57:11.830Z,-6.12
2022-12-16T01:59:42.646Z,-6.08
2022-12-16T02:02:11.987Z,-5.95
2022-12-16T02:04:59.807Z,-5.92
2022-12-16T02:07:27.928Z,-5.97
2022-12-16T02:09:56.497Z,-5.97
2022-12-16T02:12:27.350Z,-5.94
2022-12-16T02:15:03.903Z,-5.98
2022-12-16T02:17:49.092Z,-5.95
2022-12-16T02:20:25.976Z,-6.00
2022-12-16T02:23:28.303Z,-6.02
2022-12-16T02:26:21.610Z,-6.02
2022-12-16T02:29:08.246Z,-6.04
2022-12-16T02:31:55.240Z,-6.06
2022-12-16T02:34:33.312Z,-6.08
2022-12-16T02:37:25.753Z,-6.03
2022-12-16T02:40:00.780Z,-5.86
2022-12-16T02:42:35.900Z,-5.76
2022-12-16T02:45:13.469Z,-5.75
2022-12-16T02:47:41.357Z,-5.77
2022-12-16T02:50:33.573Z,-5.77
2022-12-16T02:53:02.918Z,-5.75
2022-12-16T02:56:09.169Z,-5.74
2022-12-16T02:58:49.226Z,-5.80
2022-12-16T03:01:37.259Z,-5.88
2022-12-16T03:04:15.442Z,-5.96
2022-12-16T03:06:47.805Z,-6.13
2022-12-16T03:09:21.280Z,-6.16
2022-12-16T03:11:51.311Z,-6.08
2022-12-16T03:14:20.728Z,-6.08
2022-12-16T03:16:50.207Z,-5.98
2022-12-16T03:19:20.574Z,-5.95
2022-12-16T03:22:20.641Z,-5.94
2022-12-16T03:24:48.733Z,-5.93
2022-12-16T03:27:46.119Z,-5.90
2022-12-16T03:30:18.361Z,-5.81
2022-12-16T03:32:58.318Z,-5.74
2022-12-16T03:35:33.619Z,-5.65
2022-12-16T03:38:05.538Z,-5.60
2022-12-16T03:40:34.578Z,-5.60
2022-12-16T03:43:03.410Z,-5.56
2022-12-16T03:45:38.121Z,-5.51
2022-12-16T03:48:11.377Z,-5.47
2022-12-16T03:50:39.685Z,-5.41
2022-12-16T03:53:08.895Z,-5.33
2022-12-16T03:55:36.749Z,-5.28
2022-12-16T03:58:04.650Z,-5.22
2022-12-16T04:00:32.344Z,-5.16
2022-12-16T04:03:00.318Z,-5.17
2022-12-16T04:05:29.072Z,-5.17
2022-12-16T04:08:01.818Z,-5.19
2022-12-16T04:10:49.341Z,-5.28
2022-12-16T04:13:36.024Z,-5.37
2022-12-16T04:16:23.088Z,-5.39
2022-12-16T04:19:09.501Z,-5.37
2022-12-16T04:21:56.362Z,-5.39
2022-12-16T04:24:29.632Z,-5.35
2022-12-16T04:27:16.619Z,-5.34
2022-12-16T04:30:03.231Z,-5.31
2022-12-16T04:32:51.802Z,-5.25
2022-12-16T04:35:38.963Z,-5.18
2022-12-16T04:38:25.375Z,-5.13
2022-12-16T04:41:11.679Z,-5.05
2022-12-16T04:43:58.833Z,-5.00
2022-12-16T04:46:45.052Z,-4.95
2022-12-16T04:49:31.888Z,-4.95
2022-12-16T04:52:18.332Z,-5.08
2022-12-16T04:55:04.877Z,-5.10
2022-12-16T04:57:51.229Z,-5.09
2022-12-16T05:00:37.880Z,-5.18
2022-12-16T05:03:24.905Z,-5.17
2022-12-16T05:06:11.162Z,-5.18
2022-12-16T05:08:57.521Z,-5.17
2022-12-16T05:11:43.748Z,-5.10
2022-12-16T05:14:30.306Z,-5.05
2022-12-16T05:17:19.569Z,-5.02
2022-12-16T05:20:06.029Z,-4.96
2022-12-16T05:22:52.682Z,-4.88
2022-12-16T05:25:39.347Z,-4.80
2022-12-16T05:28:25.664Z,-4.73
2022-12-16T05:31:12.279Z,-4.60
2022-12-16T05:33:59.067Z,-4.53
2022-12-16T05:36:45.165Z,-4.60
2022-12-16T05:39:31.761Z,-4.57
2022-12-16T05:42:18.578Z,-4.47
2022-12-16T05:45:04.954Z,-4.43
2022-12-16T05:47:51.628Z,-4.48
2022-12-16T05:50:38.097Z,-4.50
2022-12-16T05:53:31.831Z,-4.52
2022-12-16T05:56:18.866Z,-4.51
2022-12-16T05:59:05.494Z,-4.42
2022-12-16T06:01:52.156Z,-4.43
2022-12-16T06:04:38.330Z,-4.38
2022-12-16T06:07:24.959Z,-4.36
2022-12-16T06:10:11.646Z,-4.30
2022-12-16T06:12:58.442Z,-4.35
2022-12-16T06:15:44.917Z,-4.31
2022-12-16T06:18:31.045Z,-4.28
2022-12-16T06:21:17.351Z,-4.27
2022-12-16T06:24:04.026Z,-4.26
2022-12-16T06:26:51.865Z,-4.26
2022-12-16T06:29:38.246Z,-4.27
2022-12-16T06:32:24.464Z,-4.28
2022-12-16T06:35:10.895Z,-4.22
2022-12-16T06:37:57.010Z,-4.25
2022-12-16T06:40:43.563Z,-4.23
2022-12-16T06:43:35.064Z,-4.24
2022-12-16T06:46:22.058Z,-4.26
2022-12-16T06:49:08.801Z,-4.26
2022-12-16T06:51:55.656Z,-4.23
2022-12-16T06:54:41.928Z,-4.22
2022-12-16T06:57:28.569Z,-4.19
2022-12-16T07:00:15.178Z,-4.18
2022-12-16T07:03:01.774Z,-4.13
2022-12-16T07:05:48.361Z,-4.12
2022-12-16T07:08:34.800Z,-4.10
2022-12-16T07:11:20.980Z,-4.07
2022-12-16T07:14:07.268Z,-4.07
2022-12-16T07:16:57.373Z,-4.03
2022-12-16T07:19:44.986Z,-3.92
2022-12-16T07:22:33.439Z,-3.79
2022-12-16T07:25:20.644Z,-3.64
2022-12-16T07:28:13.718Z,-3.53
2022-12-16T07:31:02.342Z,-3.56
2022-12-16T07:33:49.175Z,-3.56
2022-12-16T07:36:35.707Z,-3.58
2022-12-16T07:39:22.479Z,-3.51
2022-12-16T07:42:09.537Z,-3.45
2022-12-16T07:44:57.339Z,-3.33
2022-12-16T07:47:57.288Z,-3.36
2022-12-16T07:50:45.423Z,-3.28
2022-12-16T07:53:40.331Z,-3.30
2022-12-16T07:56:28.261Z,-3.21
2022-12-16T07:59:15.161Z,-3.08
2022-12-16T08:02:02.824Z,-3.11
2022-12-16T08:04:50.877Z,-3.14
2022-12-16T08:07:39.774Z,-3.14
2022-12-16T08:10:27.607Z,-3.08
2022-12-16T08:13:25.940Z,-3.10
2022-12-16T08:16:14.075Z,-3.03
2022-12-16T08:19:06.201Z,-2.97
2022-12-16T08:22:01.473Z,-3.11
2022-12-16T08:24:53.263Z,-3.08
2022-12-16T08:27:44.342Z,-3.05
2022-12-16T08:30:34.232Z,-3.05
2022-12-16T08:33:21.359Z,-2.97
2022-12-16T08:36:07.872Z,-2.86
2022-12-16T08:38:56.475Z,-2.93
2022-12-16T08:41:45.814Z,-2.84
2022-12-16T08:44:32.671Z,-2.87
2022-12-16T08:47:34.790Z,-2.86
2022-12-16T08:50:22.594Z,-2.89
2022-12-16T08:53:09.734Z,-2.76
2022-12-16T08:55:56.818Z,-2.65
2022-12-16T08:58:43.396Z,-2.62
2022-12-16T09:01:30.115Z,-2.50
2022-12-16T09:04:16.716Z,-2.45
2022-12-16T09:07:06.872Z,-2.36
2022-12-16T09:09:57.901Z,-2.45
2022-12-16T09:12:45.563Z,-2.35
2022-12-16T09:15:32.745Z,-2.35
2022-12-16T09:18:19.325Z,-2.24
2022-12-16T09:21:06.235Z,-2.25
2022-12-16T09:23:56.978Z,-2.22
2022-12-16T09:26:50.263Z,-2.17
2022-12-16T09:29:43.354Z,-1.99
2022-12-16T09:32:32.868Z,-1.92
2022-12-16T09:35:20.413Z,-1.75
2022-12-16T09:38:08.630Z,-1.64
2022-12-16T09:41:00.797Z,-1.66
2022-12-16T09:44:10.545Z,-1.65
2022-12-16T09:47:20.505Z,-1.56
2022-12-16T09:50:09.848Z,-1.60
2022-12-16T09:53:03.657Z,-1.55
2022-12-16T09:56:02.166Z,-1.51
2022-12-16T09:59:02.388Z,-1.39
2022-12-16T10:01:55.005Z,-1.33
2022-12-16T10:04:43.505Z,-1.30
2022-12-16T10:07:40.433Z,-1.49
2022-12-16T10:11:12.569Z,-1.46
2022-12-16T10:14:15.995Z,-1.35
2022-12-16T10:17:38.019Z,-1.20
2022-12-16T10:20:43.036Z,-1.36
2022-12-16T10:23:38.946Z,-1.31
2022-12-16T10:26:35.788Z,-1.29
2022-12-16T10:29:45.034Z,-1.18
2022-12-16T10:32:38.405Z,-1.06
2022-12-16T10:35:42.655Z,-0.93
2022-12-16T10:38:40.357Z,-0.85
2022-12-16T10:41:35.944Z,-0.90
2022-12-16T10:44:40.617Z,-1.02
2022-12-16T10:47:29.490Z,-1.11
2022-12-16T10:50:17.436Z,-1.08
2022-12-16T10:53:09.854Z,-1.13
2022-12-16T10:56:11.314Z,-1.11
2022-12-16T10:59:20.028Z,-1.09
2022-12-16T11:02:18.608Z,-1.12
2022-12-16T11:05:08.427Z,-0.95
2022-12-16T11:07:58.138Z,-0.95
2022-12-16T11:10:56.976Z,-1.03
2022-12-16T11:13:46.511Z,-1.15
2022-12-16T11:16:38.936Z,-1.22
2022-12-16T11:19:42.877Z,-1.20
2022-12-16T11:22:34.906Z,-0.98
2022-12-16T11:25:31.657Z,-0.84
2022-12-16T11:28:30.928Z,-0.80
2022-12-16T11:31:24.045Z,-0.90
2022-12-16T11:34:13.715Z,-0.82
2022-12-16T11:37:03.239Z,-0.88
2022-12-16T11:39:55.279Z,-0.89
2022-12-16T11:42:50.862Z,-0.89
2022-12-16T11:45:41.239Z,-0.82
2022-12-16T11:48:51.830Z,-0.85
2022-12-16T11:51:41.550Z,-0.63
2022-12-16T11:54:38.083Z,-0.51
2022-12-16T11:57:38.686Z,-0.51
2022-12-16T12:00:33.626Z,-0.71
2022-12-16T12:03:28.693Z,-0.67
2022-12-16T12:06:15.879Z,-0.78
2022-12-16T12:09:24.575Z,-0.68
2022-12-16T12:12:52.177Z,-0.69
2022-12-16T12:16:06.881Z,-0.74
2022-12-16T12:19:08.129Z,-0.87
2022-12-16T12:22:15.815Z,-0.84
2022-12-16T12:25:09.332Z,-0.85
2022-12-16T12:28:07.806Z,-0.93
2022-12-16T12:31:05.504Z,-0.84
2022-12-16T12:34:18.351Z,-0.85
2022-12-16T12:37:10.561Z,-0.88
2022-12-16T12:40:04.444Z,-0.92
2022-12-16T12:43:01.741Z,-0.89
2022-12-16T12:45:54.691Z,-0.93
2022-12-16T12:48:57.455Z,-0.90
2022-12-16T12:52:00.346Z,-0.99
2022-12-16T12:55:02.987Z,-1.07
2022-12-16T12:57:56.357Z,-0.89
2022-12-16T13:00:49.975Z,-0.78
2022-12-16T13:03:47.084Z,-0.79
2022-12-16T13:06:37.812Z,-0.82
2022-12-16T13:09:44.790Z,-0.76
2022-12-16T13:12:31.374Z,-0.80
2022-12-16T13:15:41.498Z,-0.93
2022-12-16T13:18:28.407Z,-0.89
2022-12-16T13:21:17.676Z,-0.83
2022-12-16T13:24:06.916Z,-0.83
2022-12-16T13:27:16.320Z,-0.78
2022-12-16T13:30:21.329Z,-0.85
2022-12-16T13:33:25.333Z,-0.96
2022-12-16T13:36:15.784Z,-0.96
2022-12-16T13:39:08.315Z,-0.97
2022-12-16T13:41:55.101Z,-0.94
2022-12-16T13:45:08.788Z,-0.92
2022-12-16T13:48:00.638Z,-1.01
2022-12-16T13:51:02.736Z,-1.01
2022-12-16T13:54:07.891Z,-0.94
2022-12-16T13:57:07.706Z,-1.04
2022-12-16T13:59:57.191Z,-1.04
2022-12-16T14:03:01.416Z,-1.09
2022-12-16T14:05:56.834Z,-1.01
2022-12-16T14:08:56.881Z,-1.15
2022-12-16T14:12:02.614Z,-1.13
2022-12-16T14:15:02.388Z,-1.20
2022-12-16T14:18:25.616Z,-1.08
2022-12-16T14:21:21.644Z,-1.14
2022-12-16T14:24:17.089Z,-1.10
2022-12-16T14:27:04.155Z,-1.17
2022-12-16T14:29:51.401Z,-1.14
2022-12-16T14:32:51.694Z,-1.29
2022-12-16T14:35:40.567Z,-1.25
2022-12-16T14:38:48.600Z,-1.33
2022-12-16T14:41:41.978Z,-1.31
2022-12-16T14:44:46.901Z,-1.38
2022-12-16T14:47:37.021Z,-1.61
2022-12-16T14:50:38.927Z,-1.60
2022-12-16T14:53:39.590Z,-1.62
2022-12-16T14:56:35.486Z,-1.66
2022-12-16T14:59:39.344Z,-1.75
2022-12-16T15:02:48.121Z,-1.72
2022-12-16T15:05:37.516Z,-1.80
2022-12-16T15:08:25.610Z,-1.82
2022-12-16T15:11:13.395Z,-1.75
2022-12-16T15:17:14.642Z,-1.91
2022-12-16T15:20:07.311Z,-1.85
2022-12-16T15:22:55.354Z,-1.85
2022-12-16T15:25:47.244Z,-1.86
2022-12-16T15:28:43.472Z,-1.99
2022-12-16T15:31:45.622Z,-1.99
2022-12-16T15:34:48.083Z,-1.92
2022-12-16T15:37:43.543Z,-2.09
2022-12-16T15:40:41.129Z,-2.14
2022-12-16T15:43:48.386Z,-2.16
2022-12-16T15:46:47.738Z,-2.02
2022-12-16T15:49:46.660Z,-2.06
2022-12-16T15:52:43.960Z,-2.01
2022-12-16T15:55:43.670Z,-2.08
2022-12-16T15:58:38.785Z,-2.09
2022-12-16T16:01:47.295Z,-2.11
2022-12-16T16:04:50.345Z,-2.21
2022-12-16T16:07:43.285Z,-2.12
2022-12-16T16:10:36.436Z,-2.15
2022-12-16T16:13:26.373Z,-2.04
2022-12-16T16:16:15.079Z,-2.03
2022-12-16T16:19:03.299Z,-2.01
2022-12-16T16:21:53.264Z,-1.91
2022-12-16T16:24:49.375Z,-1.86
2022-12-16T16:28:02.232Z,-1.85
2022-12-16T16:31:17.367Z,-1.91
2022-12-16T16:34:09.164Z,-1.95
2022-12-16T16:36:57.458Z,-1.98
2022-12-16T16:39:46.672Z,-1.97
2022-12-16T16:42:48.721Z,-1.88
2022-12-16T16:45:37.900Z,-2.00
2022-12-16T16:48:41.853Z,-1.84
2022-12-16T16:51:32.878Z,-1.87
2022-12-16T16:54:20.948Z,-1.90
2022-12-16T16:57:09.555Z,-1.98
2022-12-16T17:03:11.645Z,-1.94
2022-12-16T17:06:08.326Z,-1.99
2022-12-16T17:09:01.779Z,-1.99
2022-12-16T17:11:50.339Z,-2.03
2022-12-16T17:14:40.480Z,-2.01
2022-12-16T17:17:29.335Z,-2.05
2022-12-16T17:20:19.029Z,-2.14
2022-12-16T17:23:07.978Z,-2.13
2022-12-16T17:29:01.025Z,-1.99
2022-12-16T17:35:08.224Z,-2.09
2022-12-16T17:38:04.950Z,-2.18
2022-12-16T17:41:12.210Z,-2.15
2022-12-16T17:44:02.072Z,-2.20
2022-12-16T17:47:02.954Z,-2.08
2022-12-16T17:49:54.843Z,-1.96
2022-12-16T17:52:50.849Z,-2.06
2022-12-16T17:55:38.323Z,-2.06
2022-12-16T17:58:26.094Z,-2.14
2022-12-16T18:01:12.931Z,-2.06
2022-12-16T18:04:01.183Z,-2.09
2022-12-16T18:06:57.539Z,-2.14
2022-12-16T18:09:51.235Z,-2.10
2022-12-16T18:12:41.405Z,-2.16
2022-12-16T18:18:32.334Z,-2.02
2022-12-16T18:21:33.217Z,-2.07
2022-12-16T18:24:28.007Z,-2.19
2022-12-16T18:27:16.048Z,-2.30
2022-12-16T18:30:03.326Z,-2.21
2022-12-16T18:32:52.318Z,-2.16
2022-12-16T18:35:44.264Z,-2.05
2022-12-16T18:38:40.887Z,-2.06
2022-12-16T18:41:35.799Z,-2.17
2022-12-16T18:44:25.876Z,-2.16
2022-12-16T18:47:23.685Z,-2.14
2022-12-16T18:50:25.500Z,-2.08
2022-12-16T18:53:31.857Z,-2.15
2022-12-16T18:56:25.539Z,-2.18
2022-12-16T18:59:15.761Z,-2.30
2022-12-16T19:02:06.705Z,-2.34
2022-12-16T19:04:57.639Z,-2.34
2022-12-16T19:07:46.743Z,-2.36
2022-12-16T19:10:35.011Z,-2.33
2022-12-16T19:13:22.308Z,-2.39
2022-12-16T19:16:17.120Z,-2.39
2022-12-16T19:19:04.683Z,-2.39
2022-12-16T19:21:56.690Z,-2.44
2022-12-16T19:24:45.419Z,-2.53
2022-12-16T19:27:49.918Z,-2.51
2022-12-16T19:30:38.451Z,-2.59
2022-12-16T19:40:35.115Z,-2.64
2022-12-16T19:43:24.471Z,-2.60
2022-12-16T19:46:48.448Z,-2.60
2022-12-16T19:49:44.346Z,-2.65
2022-12-16T19:52:58.946Z,-2.75
2022-12-16T19:56:07.789Z,-2.67
2022-12-16T19:58:59.046Z,-2.64
2022-12-16T20:02:23.805Z,-2.77
2022-12-16T20:05:20.987Z,-2.67
2022-12-16T20:08:11.611Z,-2.60
2022-12-16T20:11:01.731Z,-2.69
2022-12-16T20:13:49.863Z,-2.76
2022-12-16T20:16:52.523Z,-2.78
2022-12-16T20:19:43.115Z,-2.75
2022-12-16T20:22:32.783Z,-2.78
2022-12-16T20:25:28.138Z,-2.80
2022-12-16T20:28:23.242Z,-2.71
2022-12-16T20:31:25.164Z,-2.58
2022-12-16T20:34:15.332Z,-2.62
2022-12-16T20:37:09.617Z,-2.52
2022-12-16T20:40:02.500Z,-2.51
2022-12-16T20:42:53.556Z,-2.54
2022-12-16T20:45:46.716Z,-2.44
2022-12-16T20:48:35.664Z,-2.30
2022-12-16T20:57:36.521Z,-2.53
2022-12-16T21:00:50.558Z,-2.54
2022-12-16T21:03:39.065Z,-2.63
2022-12-16T21:06:27.173Z,-2.55
2022-12-16T21:09:17.254Z,-2.59
2022-12-16T21:12:06.334Z,-2.70
2022-12-16T21:14:58.857Z,-2.61
2022-12-16T21:17:48.021Z,-2.49
2022-12-16T21:20:38.372Z,-2.46
2022-12-16T21:23:27.794Z,-2.51
2022-12-16T21:26:18.336Z,-2.37
2022-12-16T21:29:05.814Z,-2.32
2022-12-16T21:31:56.586Z,-2.26
2022-12-16T21:34:47.878Z,-2.36
2022-12-16T21:37:37.948Z,-2.32
2022-12-16T21:40:25.865Z,-2.25
2022-12-16T21:43:14.745Z,-2.35
2022-12-16T21:46:13.806Z,-2.40
2022-12-16T21:49:00.562Z,-2.33
2022-12-16T21:52:01.060Z,-2.37
2022-12-16T21:54:49.742Z,-2.39
2022-12-16T21:57:39.680Z,-2.33
2022-12-16T22:00:28.114Z,-2.45
2022-12-16T22:03:16.001Z,-2.45
2022-12-16T22:06:05.245Z,-2.38
2022-12-16T22:08:52.870Z,-2.37
2022-12-16T22:11:43.281Z,-2.30
2022-12-16T22:14:30.906Z,-2.21
2022-12-16T22:17:17.662Z,-2.22
2022-12-16T22:20:04.633Z,-2.33
2022-12-16T22:22:51.936Z,-2.32
2022-12-16T22:25:42.569Z,-2.28
2022-12-16T22:28:30.641Z,-2.13
2022-12-16T22:31:17.060Z,-2.12
2022-12-16T22:34:09.338Z,-2.12
2022-12-16T22:36:21.555Z,-2.28
2022-12-16T22:36:57.762Z,-2.02
2022-12-16T22:39:45.556Z,-2.04
2022-12-16T22:42:33.608Z,-2.05
2022-12-16T22:45:23.553Z,-2.09
2022-12-16T22:48:10.297Z,-2.08
2022-12-16T22:50:57.313Z,-2.04
2022-12-16T22:53:44.086Z,-2.07
2022-12-16T22:56:31.902Z,-2.08
2022-12-16T22:59:19.556Z,-2.06
2022-12-16T23:02:06.180Z,-2.15
2022-12-16T23:04:53.129Z,-2.28
2022-12-16T23:07:42.093Z,-2.19
2022-12-16T23:10:32.237Z,-2.26
2022-12-16T23:13:19.536Z,-2.23
2022-12-16T23:16:06.285Z,-2.32
2022-12-16T23:19:06.678Z,-2.33
2022-12-16T23:21:53.502Z,-2.37
2022-12-16T23:24:40.420Z,-2.34
2022-12-16T23:27:29.555Z,-2.38
2022-12-16T23:30:24.081Z,-2.21
2022-12-16T23:33:21.748Z,-2.14
2022-12-16T23:36:10.114Z,-2.11
2022-12-16T23:38:56.719Z,-2.28
2022-12-16T23:41:43.416Z,-2.23
2022-12-16T23:44:33.854Z,-2.01
2022-12-16T23:47:21.705Z,-1.82
2022-12-16T23:50:15.450Z,-1.72
2022-12-16T23:53:04.342Z,-1.74
2022-12-16T23:55:51.275Z,-1.84
2022-12-16T23:58:38.359Z,-1.98
